Welcome to Trans World Virtual Airlines!

Welcome TWVA's Newest Pilot:

TWA2295 Michael Boatright

Not a Trans World pilot yet?
Apply Now!

with your pilot id or email, or register

Flight TWA279

  • Submitted By: Austin Hill
  • Departure Airport: Chicago O'Hare International Airport (KORD)
  • Arrival Airport: Lambert-Saint Louis International Airport (KSTL)
  • Aircraft: MD-83 (N44266TW)
  • Flight Time: 01.28
  • Date Submitted: 02/24/2018
  • Status: Accepted
Flight Details
Gross Revenue:
(118 load / $ 95.00 per unit
$ 11, 210.00
Fuel Cost:
(10809 fuel used @ 0.8 / unit)
$ 8, 647.20

Additional Log Information:

View Log

FS[17:59] Aircraft Title - MD_83 Paint4
FS[17:59] Aircraft Model - MD83
FS[17:59] Flight Number TWA279
FS[17:59] Departure KORD
FS[17:59] Destination KSTL
FS[17:59] FS Restarted
FS[17:59] Boarding
FS[18:08] Pushing Back
FS[18:12] Taxiing to Runway
FS[18:19] Taking Off
FS[18:19] Taking Off
FS[18:19] 181kts
FS[18:19] pitch angle 9 degrees
FS[18:19] 21604 (lbs) of fuel onboard
FS[18:20] Climbing
FS[18:32] TOC Reached
FS[18:32] Cruise 26000
FS[18:46] TOD Reached
FS[18:46] Descending
FS[18:59] On Approach
FS[19:11] Landing Rate -74fpm
FS[19:11] 12762 (lbs) of fuel onboard
FS[19:11] pitch angle 7 degrees
FS[19:12] Taxiing to Gate
FS[19:17] Arrived
FS[19:23] Max Sim Rate: 1x
FS[19:23] kACARS_Free Version


Commenter Comment
Austin Hill KORD 241801Z 27512KT 9SM OVC009 06/04 A3011 // KSTL 241842Z 26009KT P6SM SCT012 BKN030 09/07 A3028

Route Map